Time;durP1;ratioP1;P1;durP2;ratioP2;P2;SDS_P1;SDS_P2;PMS_P1;PMS_P2;Temp;Humidity;BMP_temperature;BMP_pressure;BME280_temperature;BME280_humidity;BME280_pressure;Samples;Min_cycle;Max_cycle;Signal;HPM_P1;HPM_P2
2023/05/04 00:00:06;;;;;;;0.75;0.75;;;20.00;84.40;;;;;;5005626;28;20750;-85
2023/05/04 00:02:31;;;;;;;0.75;0.75;;;20.00;84.40;;;;;;5003994;28;20114;-85
2023/05/04 00:04:57;;;;;;;0.80;0.80;;;20.00;84.40;;;;;;5003425;28;20045;-84
2023/05/04 00:07:22;;;;;;;0.85;0.77;;;20.00;84.40;;;;;;5003619;28;20495;-84
2023/05/04 00:09:49;;;;;;;0.73;0.60;;;20.00;84.40;;;;;;5005482;28;20042;-84
2023/05/04 00:12:14;;;;;;;0.90;0.90;;;20.00;84.40;;;;;;5000392;28;20436;-84
2023/05/04 00:14:40;;;;;;;0.68;0.68;;;20.00;84.40;;;;;;5003829;28;20511;-85
2023/05/04 00:17:06;;;;;;;0.70;0.70;;;20.00;84.40;;;;;;5003085;28;20038;-84
2023/05/04 00:19:33;;;;;;;0.60;0.60;;;20.00;84.40;;;;;;5005876;28;20046;-85
2023/05/04 00:21:59;;;;;;;0.80;0.80;;;20.00;85.10;;;;;;5004201;28;20499;-85
2023/05/04 00:24:25;;;;;;;0.90;0.90;;;20.00;84.30;;;;;;5005619;28;20056;-84
2023/05/04 00:26:50;;;;;;;1.00;1.00;;;20.00;84.30;;;;;;5009217;28;20193;-86
2023/05/04 00:29:16;;;;;;;0.75;0.75;;;20.00;84.20;;;;;;5004705;28;20084;-85
2023/05/04 00:31:42;;;;;;;0.90;0.90;;;20.00;84.20;;;;;;5004857;28;20518;-86
2023/05/04 00:34:07;;;;;;;0.98;0.98;;;20.00;84.20;;;;;;5004671;28;20046;-85
2023/05/04 00:36:33;;;;;;;0.90;0.90;;;20.00;84.20;;;;;;5003486;28;20061;-85
2023/05/04 00:38:58;;;;;;;0.82;0.82;;;20.00;84.20;;;;;;5005892;28;20129;-85
2023/05/04 00:41:24;;;;;;;0.90;0.90;;;20.00;84.10;;;;;;5001483;28;20045;-85
2023/05/04 00:43:50;;;;;;;0.90;0.90;;;20.00;84.10;;;;;;5005881;28;20050;-85
2023/05/04 00:46:15;;;;;;;1.10;1.00;;;20.00;84.00;;;;;;5003262;28;20423;-85
2023/05/04 00:48:41;;;;;;;0.88;0.88;;;20.00;84.10;;;;;;5006203;28;20092;-86
2023/05/04 00:51:07;;;;;;;1.00;1.00;;;20.00;84.00;;;;;;5002947;28;20042;-85
2023/05/04 00:53:34;;;;;;;0.85;0.85;;;20.00;84.00;;;;;;5001482;28;20057;-85
2023/05/04 00:56:00;;;;;;;0.68;0.68;;;20.00;84.00;;;;;;5015109;28;20510;-86
2023/05/04 00:58:25;;;;;;;0.98;0.80;;;20.00;84.00;;;;;;5000497;28;20073;-86
2023/05/04 01:00:51;;;;;;;0.75;0.75;;;20.00;84.00;;;;;;5002999;28;20046;-86
2023/05/04 01:03:17;;;;;;;0.80;0.80;;;20.00;83.90;;;;;;5001243;28;20050;-85
2023/05/04 01:05:52;;;;;;;1.00;1.00;;;20.00;83.90;;;;;;5004680;28;20591;-85
2023/05/04 01:08:19;;;;;;;0.95;0.95;;;19.90;83.80;;;;;;5002462;28;20050;-85
2023/05/04 01:11:00;;;;;;;0.80;0.80;;;20.00;83.80;;;;;;5015509;28;20050;-85
2023/05/04 01:13:25;;;;;;;0.73;0.73;;;19.90;83.70;;;;;;4987949;28;20053;-85
2023/05/04 01:15:51;;;;;;;1.00;0.80;;;19.90;83.80;;;;;;5005071;28;20077;-87
2023/05/04 01:18:16;;;;;;;0.80;0.80;;;19.90;83.80;;;;;;5003468;28;20049;-87
2023/05/04 01:20:42;;;;;;;0.73;0.73;;;19.90;83.80;;;;;;5017481;28;20140;-87
2023/05/04 01:23:08;;;;;;;0.70;0.70;;;19.90;84.50;;;;;;5017519;28;20524;-86
2023/05/04 01:26:02;;;;;;;1.52;0.80;;;19.90;83.80;;;;;;4999658;28;20511;-86
2023/05/04 01:28:38;;;;;;;0.70;0.70;;;19.90;83.70;;;;;;5024816;28;20419;-86
2023/05/04 01:31:04;;;;;;;0.93;0.93;;;19.90;83.70;;;;;;5004792;28;20054;-86
2023/05/04 01:33:29;;;;;;;0.65;0.65;;;19.90;83.70;;;;;;5006329;28;20063;-86
2023/05/04 01:35:55;;;;;;;0.73;0.73;;;19.90;83.70;;;;;;5008259;28;20044;-86
2023/05/04 01:38:20;;;;;;;0.90;0.90;;;19.90;83.70;;;;;;5005653;28;20344;-86
2023/05/04 01:40:46;;;;;;;0.70;0.70;;;19.90;83.70;;;;;;5009124;28;20462;-86
2023/05/04 01:43:11;;;;;;;0.80;0.80;;;19.90;83.70;;;;;;5008295;28;20034;-86
2023/05/04 01:45:37;;;;;;;0.80;0.80;;;19.90;83.70;;;;;;5010972;28;20038;-86
2023/05/04 01:48:03;;;;;;;0.70;0.70;;;19.90;83.70;;;;;;5004480;28;20069;-86
2023/05/04 01:50:28;;;;;;;0.75;0.75;;;19.90;83.70;;;;;;5005386;28;20041;-86
2023/05/04 01:52:54;;;;;;;0.75;0.75;;;19.90;83.70;;;;;;5005126;28;20041;-86
2023/05/04 01:55:19;;;;;;;1.58;1.02;;;19.90;83.80;;;;;;4989651;28;20049;-85
2023/05/04 01:57:45;;;;;;;0.60;0.60;;;19.90;83.80;;;;;;5006688;28;20048;-87
2023/05/04 02:00:11;;;;;;;0.65;0.65;;;19.90;83.80;;;;;;5008569;28;20511;-87
2023/05/04 02:02:37;;;;;;;0.77;0.77;;;19.90;83.80;;;;;;5004906;28;21173;-87
2023/05/04 02:05:02;;;;;;;0.80;0.80;;;19.90;83.80;;;;;;5002812;28;20060;-85
2023/05/04 02:07:28;;;;;;;0.90;0.90;;;19.90;83.80;;;;;;5008842;28;20500;-85
2023/05/04 02:09:53;;;;;;;0.70;0.70;;;19.90;83.70;;;;;;5008881;28;20048;-85
2023/05/04 02:12:19;;;;;;;0.80;0.80;;;19.90;83.80;;;;;;5006619;28;20050;-85
2023/05/04 02:14:45;;;;;;;0.73;0.73;;;19.90;83.80;;;;;;5005288;28;20053;-86
2023/05/04 02:17:10;;;;;;;0.70;0.70;;;19.90;83.80;;;;;;5000521;28;20043;-86
2023/05/04 02:19:36;;;;;;;0.70;0.70;;;19.90;83.80;;;;;;5004832;28;20061;-86
2023/05/04 02:22:01;;;;;;;0.80;0.80;;;19.90;83.80;;;;;;5007278;28;20046;-86
2023/05/04 02:24:27;;;;;;;0.75;0.75;;;19.90;83.80;;;;;;5005791;28;20053;-85
2023/05/04 02:26:52;;;;;;;0.77;0.77;;;19.90;83.80;;;;;;5005397;28;20069;-85
2023/05/04 02:29:18;;;;;;;0.90;0.90;;;19.90;83.80;;;;;;5007172;28;20103;-85
2023/05/04 02:31:43;;;;;;;0.50;0.50;;;19.90;83.80;;;;;;5007857;28;20040;-85
2023/05/04 02:34:09;;;;;;;0.75;0.75;;;19.90;83.90;;;;;;5006230;28;20728;-85
2023/05/04 02:36:34;;;;;;;1.20;0.70;;;19.80;83.80;;;;;;5005784;28;20745;-85
2023/05/04 02:39:00;;;;;;;0.80;0.80;;;19.80;83.90;;;;;;5006323;28;20041;-85
2023/05/04 02:41:26;;;;;;;0.65;0.65;;;19.80;84.70;;;;;;5005398;28;20571;-84
2023/05/04 02:43:51;;;;;;;0.98;0.98;;;19.80;83.90;;;;;;5005800;28;20045;-85
2023/05/04 02:46:18;;;;;;;1.10;1.00;;;19.80;84.00;;;;;;5035202;28;20038;-85
2023/05/04 02:48:44;;;;;;;0.95;0.95;;;19.80;83.90;;;;;;5008470;28;20522;-85
2023/05/04 02:51:10;;;;;;;0.80;0.80;;;19.80;84.00;;;;;;5006802;28;20046;-85
2023/05/04 02:53:35;;;;;;;0.75;0.75;;;19.80;84.00;;;;;;5001147;28;20523;-86
2023/05/04 02:56:01;;;;;;;0.77;0.77;;;19.80;84.00;;;;;;5004038;28;20057;-86
2023/05/04 02:58:26;;;;;;;0.70;0.70;;;19.80;84.00;;;;;;5004739;28;20049;-85
2023/05/04 03:00:54;;;;;;;0.80;0.80;;;19.80;84.10;;;;;;5005296;28;20049;-86
2023/05/04 03:03:19;;;;;;;0.85;0.85;;;19.80;84.00;;;;;;5009033;28;20046;-87
2023/05/04 03:05:45;;;;;;;0.60;0.60;;;19.80;84.00;;;;;;5001992;28;20057;-86
2023/05/04 03:08:11;;;;;;;0.77;0.77;;;19.80;84.00;;;;;;5006604;28;20504;-87
2023/05/04 03:10:36;;;;;;;0.90;0.90;;;19.80;84.80;;;;;;5006813;28;20054;-86
2023/05/04 03:13:04;;;;;;;0.60;0.60;;;19.80;84.10;;;;;;5007023;28;20061;-85
2023/05/04 03:15:31;;;;;;;0.70;0.70;;;19.80;84.10;;;;;;5006888;28;20034;-85
2023/05/04 03:17:57;;;;;;;0.65;0.65;;;19.80;84.00;;;;;;5003975;28;20037;-85
2023/05/04 03:20:23;;;;;;;0.80;0.80;;;19.80;84.00;;;;;;5004069;28;20061;-85
2023/05/04 03:22:49;;;;;;;0.52;0.52;;;19.80;84.00;;;;;;5029902;28;20038;-86
2023/05/04 03:25:14;;;;;;;0.70;0.70;;;19.80;84.00;;;;;;5005163;28;20538;-86
2023/05/04 03:27:40;;;;;;;1.00;0.60;;;19.80;84.00;;;;;;5006554;28;20231;-86
2023/05/04 03:30:06;;;;;;;0.70;0.70;;;19.80;84.00;;;;;;5005613;28;20073;-85
2023/05/04 03:32:32;;;;;;;1.10;0.80;;;19.80;84.00;;;;;;5005101;28;20084;-85
2023/05/04 03:34:58;;;;;;;0.70;0.70;;;19.80;84.10;;;;;;5005332;28;20073;-84
2023/05/04 03:37:23;;;;;;;0.60;0.60;;;19.80;84.00;;;;;;5019464;28;20592;-84
2023/05/04 03:39:49;;;;;;;0.70;0.70;;;19.80;84.10;;;;;;5006653;28;20089;-85
2023/05/04 03:42:14;;;;;;;0.75;0.75;;;19.80;84.10;;;;;;5010452;28;20044;-86
2023/05/04 03:44:40;;;;;;;0.70;0.70;;;19.80;84.00;;;;;;4986438;28;20404;-85
2023/05/04 03:47:06;;;;;;;0.65;0.65;;;19.80;84.00;;;;;;5005677;28;20042;-86
2023/05/04 03:49:33;;;;;;;0.50;0.50;;;19.80;84.00;;;;;;5003182;28;20080;-85
2023/05/04 03:51:58;;;;;;;0.50;0.50;;;19.80;84.00;;;;;;5005694;28;20049;-85
2023/05/04 03:54:25;;;;;;;0.70;0.70;;;19.80;84.00;;;;;;5005229;28;20049;-84
2023/05/04 03:56:50;;;;;;;0.57;0.57;;;19.80;84.00;;;;;;5019247;28;20075;-85
2023/05/04 03:59:16;;;;;;;0.45;0.45;;;19.80;84.00;;;;;;5026390;28;20049;-86
2023/05/04 04:01:41;;;;;;;0.70;0.70;;;19.80;84.00;;;;;;5003559;28;20050;-86
2023/05/04 04:04:07;;;;;;;0.68;0.68;;;19.80;84.00;;;;;;5006003;28;20515;-85
2023/05/04 04:06:33;;;;;;;0.70;0.70;;;19.80;84.00;;;;;;5003943;28;20127;-86
2023/05/04 04:08:58;;;;;;;0.57;0.57;;;19.80;84.00;;;;;;5006658;28;20049;-85
2023/05/04 04:11:25;;;;;;;0.68;0.68;;;19.80;84.00;;;;;;5003378;28;20281;-86
2023/05/04 04:13:51;;;;;;;0.93;0.70;;;19.80;84.00;;;;;;5001776;28;20510;-86
2023/05/04 04:16:16;;;;;;;0.70;0.70;;;19.80;84.00;;;;;;5004671;28;20038;-86
2023/05/04 04:18:42;;;;;;;0.60;0.60;;;19.80;83.90;;;;;;5005451;28;20041;-85
2023/05/04 04:21:09;;;;;;;0.60;0.60;;;19.80;83.90;;;;;;4998599;28;20050;-86
2023/05/04 04:23:34;;;;;;;0.50;0.50;;;19.80;83.90;;;;;;5003518;28;20062;-85
2023/05/04 04:26:00;;;;;;;0.73;0.73;;;19.70;83.80;;;;;;5027725;28;20093;-85
2023/05/04 04:28:26;;;;;;;0.65;0.65;;;19.70;83.90;;;;;;5024572;28;20407;-81
2023/05/04 04:30:51;;;;;;;0.60;0.60;;;19.70;83.80;;;;;;5005805;28;20046;-85
2023/05/04 04:33:17;;;;;;;0.80;0.80;;;19.70;83.90;;;;;;5019999;28;20409;-86
2023/05/04 04:35:43;;;;;;;0.70;0.70;;;19.70;83.90;;;;;;5018364;28;20050;-85
2023/05/04 04:38:08;;;;;;;0.80;0.80;;;19.70;83.90;;;;;;4998316;28;20065;-89
2023/05/04 04:40:35;;;;;;;0.68;0.68;;;19.70;83.60;;;;;;4998156;28;20460;-83
2023/05/04 04:43:01;;;;;;;0.75;0.75;;;19.70;84.00;;;;;;5006099;28;20221;-85
2023/05/04 04:45:27;;;;;;;0.63;0.63;;;19.70;84.00;;;;;;5004156;28;20446;-80
2023/05/04 04:47:52;;;;;;;0.88;0.88;;;19.70;84.10;;;;;;5000330;28;20515;-84
2023/05/04 04:50:18;;;;;;;0.70;0.70;;;19.70;84.00;;;;;;5000260;28;20038;-83
2023/05/04 04:52:44;;;;;;;0.60;0.60;;;19.70;84.00;;;;;;5001154;28;20510;-82
2023/05/04 04:55:10;;;;;;;0.55;0.55;;;19.70;83.80;;;;;;5004850;28;20084;-84
2023/05/04 04:57:35;;;;;;;0.70;0.70;;;19.80;84.00;;;;;;5002859;28;20045;-83
2023/05/04 05:00:01;;;;;;;1.08;0.68;;;19.80;83.80;;;;;;5004086;28;20049;-90
2023/05/04 05:02:30;;;;;;;0.90;0.90;;;19.80;83.60;;;;;;5001522;28;20099;-85
2023/05/04 05:04:56;;;;;;;0.63;0.63;;;19.80;83.80;;;;;;5001787;28;20042;-83
2023/05/04 05:07:21;;;;;;;0.80;0.80;;;19.80;83.80;;;;;;5028226;28;20045;-83
2023/05/04 05:09:47;;;;;;;0.77;0.77;;;19.80;83.80;;;;;;5002412;28;20043;-85
2023/05/04 05:12:12;;;;;;;0.82;0.70;;;19.80;83.80;;;;;;5006209;28;20050;-86
2023/05/04 05:14:38;;;;;;;0.63;0.63;;;19.80;84.00;;;;;;5007773;28;20053;-84
2023/05/04 05:17:04;;;;;;;0.60;0.60;;;19.80;84.00;;;;;;5010135;28;20079;-83
2023/05/04 05:19:29;;;;;;;0.80;0.80;;;19.80;84.00;;;;;;5005267;28;20041;-82
2023/05/04 05:21:55;;;;;;;0.65;0.65;;;19.80;84.80;;;;;;5009241;28;20041;-86
2023/05/04 05:24:21;;;;;;;0.75;0.75;;;19.80;84.00;;;;;;5008014;28;20065;-88
2023/05/04 05:26:47;;;;;;;0.80;0.80;;;19.80;84.20;;;;;;5007631;28;20151;-84
2023/05/04 05:29:12;;;;;;;0.75;0.75;;;19.80;84.40;;;;;;5009025;28;20048;-84
2023/05/04 05:31:38;;;;;;;0.60;0.60;;;19.80;84.50;;;;;;5023113;28;20042;-85
2023/05/04 05:34:03;;;;;;;0.65;0.65;;;19.80;84.50;;;;;;5007213;28;20460;-81
2023/05/04 05:36:29;;;;;;;0.70;0.70;;;19.80;84.40;;;;;;5008671;28;20092;-81
2023/05/04 05:38:55;;;;;;;0.70;0.70;;;19.80;84.20;;;;;;5005804;28;20042;-81
2023/05/04 05:41:21;;;;;;;0.85;0.85;;;19.80;84.40;;;;;;5010631;28;20132;-81
2023/05/04 05:43:46;;;;;;;0.63;0.63;;;19.80;84.30;;;;;;5004535;28;20076;-80
2023/05/04 05:46:13;;;;;;;0.85;0.85;;;19.80;84.50;;;;;;5008414;28;20069;-81
2023/05/04 05:48:38;;;;;;;0.70;0.70;;;19.80;85.20;;;;;;5008564;28;20033;-81
2023/05/04 05:51:04;;;;;;;0.90;0.90;;;19.80;84.50;;;;;;5005923;28;20562;-81
2023/05/04 05:53:30;;;;;;;1.23;0.70;;;19.80;84.40;;;;;;5005967;28;20060;-80
2023/05/04 05:55:55;;;;;;;0.70;0.70;;;19.80;85.10;;;;;;5002250;28;20107;-81
2023/05/04 05:58:21;;;;;;;0.70;0.70;;;19.80;84.60;;;;;;5035933;28;20038;-80
2023/05/04 06:00:47;;;;;;;0.55;0.55;;;19.80;84.50;;;;;;5009813;28;20089;-82
2023/05/04 06:03:13;;;;;;;2.53;0.75;;;19.80;84.40;;;;;;5010025;28;20057;-83
2023/05/04 06:05:38;;;;;;;0.63;0.63;;;19.80;84.40;;;;;;5006064;28;20041;-81
2023/05/04 06:08:04;;;;;;;1.00;0.73;;;19.80;84.40;;;;;;5007990;28;20084;-82
2023/05/04 06:10:29;;;;;;;0.80;0.80;;;19.80;84.40;;;;;;4992947;28;20790;-81
2023/05/04 06:12:55;;;;;;;1.08;1.08;;;19.80;84.40;;;;;;5003851;28;20400;-80
2023/05/04 06:15:21;;;;;;;0.80;0.80;;;19.80;84.30;;;;;;4655822;28;10000356;-82
2023/05/04 06:17:48;;;;;;;0.80;0.80;;;19.80;84.50;;;;;;4998284;28;20122;-82
2023/05/04 06:20:14;;;;;;;0.75;0.75;;;19.80;84.50;;;;;;5004817;28;20077;-82
2023/05/04 06:22:40;;;;;;;0.70;0.70;;;19.80;84.60;;;;;;5002854;28;20042;-82
2023/05/04 06:25:05;;;;;;;1.90;1.00;;;19.80;84.40;;;;;;5001766;28;20054;-83
2023/05/04 06:27:32;;;;;;;3.47;0.70;;;19.80;84.30;;;;;;5004884;28;20042;-83
2023/05/04 06:29:57;;;;;;;0.70;0.70;;;19.80;84.40;;;;;;4999952;28;20149;-82
2023/05/04 06:32:23;;;;;;;1.15;0.95;;;19.80;84.40;;;;;;5000976;28;20052;-80
2023/05/04 06:34:53;;;;;;;0.80;0.80;;;19.90;84.30;;;;;;5002757;28;20042;-81
2023/05/04 06:37:18;;;;;;;0.82;0.82;;;19.80;84.30;;;;;;5008836;28;20095;-81
2023/05/04 06:39:44;;;;;;;0.75;0.75;;;19.80;84.40;;;;;;5010526;28;20045;-83
2023/05/04 06:42:11;;;;;;;0.70;0.70;;;19.80;84.40;;;;;;5008893;28;20069;-79
2023/05/04 06:44:39;;;;;;;0.80;0.80;;;19.80;84.40;;;;;;5006985;28;20029;-81
2023/05/04 06:47:06;;;;;;;1.58;0.70;;;19.80;84.60;;;;;;5003971;28;20076;-83
2023/05/04 06:49:32;;;;;;;1.25;0.80;;;19.80;84.60;;;;;;5006727;28;20038;-81
2023/05/04 06:51:58;;;;;;;0.68;0.68;;;19.80;84.70;;;;;;5004357;28;20056;-82
2023/05/04 06:54:24;;;;;;;0.93;0.93;;;19.80;84.60;;;;;;5005253;28;20046;-79
2023/05/04 06:56:50;;;;;;;2.03;1.13;;;19.80;84.80;;;;;;5003842;28;20046;-80
2023/05/04 06:59:19;;;;;;;2.70;0.90;;;19.80;85.30;;;;;;5004793;28;20050;-80
2023/05/04 07:01:47;;;;;;;1.63;1.00;;;19.80;84.90;;;;;;5005300;28;20065;-80
2023/05/04 07:04:15;;;;;;;1.60;0.90;;;19.80;84.90;;;;;;5005390;28;20040;-80
2023/05/04 07:06:42;;;;;;;2.65;1.00;;;19.80;84.80;;;;;;5006764;28;20459;-80
2023/05/04 07:09:07;;;;;;;1.42;0.82;;;19.80;84.80;;;;;;5020549;28;20035;-80
2023/05/04 07:11:33;;;;;;;1.23;0.80;;;19.80;84.80;;;;;;5006465;28;20038;-80
2023/05/04 07:13:58;;;;;;;0.63;0.63;;;19.80;84.80;;;;;;5006410;28;20050;-80
2023/05/04 07:16:25;;;;;;;1.02;1.02;;;19.80;84.80;;;;;;5006785;28;20446;-80
2023/05/04 07:18:50;;;;;;;0.70;0.70;;;19.80;84.80;;;;;;5006348;28;20111;-80
2023/05/04 07:21:16;;;;;;;0.60;0.60;;;19.80;84.80;;;;;;5008892;28;20504;-80
2023/05/04 07:23:41;;;;;;;1.00;1.00;;;19.80;84.80;;;;;;5000736;28;20072;-79
2023/05/04 07:26:07;;;;;;;2.53;0.82;;;19.80;84.80;;;;;;5005227;28;20044;-80
2023/05/04 07:28:33;;;;;;;1.30;0.80;;;19.80;84.80;;;;;;5021279;28;20045;-80
2023/05/04 07:30:58;;;;;;;0.70;0.70;;;19.80;84.70;;;;;;5004158;28;20053;-80
2023/05/04 07:33:25;;;;;;;0.80;0.80;;;19.80;84.80;;;;;;5004814;28;20042;-80
2023/05/04 07:35:56;;;;;;;1.00;0.90;;;19.80;84.80;;;;;;5000741;28;20561;-79
2023/05/04 07:38:21;;;;;;;0.88;0.88;;;19.80;84.80;;;;;;4989371;28;20466;-80
2023/05/04 07:40:47;;;;;;;1.00;1.00;;;19.80;84.70;;;;;;5002650;28;20042;-80
2023/05/04 07:43:13;;;;;;;1.13;0.82;;;19.80;84.70;;;;;;5003495;28;20106;-80
2023/05/04 07:45:38;;;;;;;1.10;0.80;;;19.80;84.80;;;;;;5002917;28;20107;-80
2023/05/04 07:48:04;;;;;;;0.77;0.77;;;19.80;84.80;;;;;;5007405;28;20050;-80
2023/05/04 07:50:30;;;;;;;1.80;0.90;;;19.80;84.80;;;;;;5005738;28;20109;-80
2023/05/04 07:52:55;;;;;;;1.00;0.90;;;19.70;84.60;;;;;;5004273;28;20049;-80
2023/05/04 07:55:21;;;;;;;0.90;0.90;;;19.70;84.60;;;;;;5006408;28;20070;-80
2023/05/04 07:57:47;;;;;;;0.80;0.80;;;19.80;84.70;;;;;;5021510;28;20052;-80
2023/05/04 08:00:13;;;;;;;1.20;0.93;;;19.80;84.60;;;;;;5029342;28;20101;-80
2023/05/04 08:02:39;;;;;;;0.68;0.68;;;19.80;84.50;;;;;;5003832;28;20476;-80
2023/05/04 08:05:05;;;;;;;0.70;0.70;;;19.70;84.40;;;;;;5003283;28;20053;-80
2023/05/04 08:07:31;;;;;;;1.52;0.77;;;19.80;84.40;;;;;;5007604;28;20321;-80
2023/05/04 08:09:57;;;;;;;1.02;0.70;;;19.80;84.40;;;;;;5005947;28;20129;-80
2023/05/04 08:12:25;;;;;;;0.70;0.70;;;19.80;84.40;;;;;;5006366;28;20577;-80
2023/05/04 08:14:51;;;;;;;0.73;0.73;;;19.80;84.40;;;;;;5004999;28;20128;-80
2023/05/04 08:17:16;;;;;;;1.20;0.65;;;19.80;85.10;;;;;;5005721;28;20132;-80
2023/05/04 08:19:42;;;;;;;1.05;1.00;;;19.80;84.40;;;;;;5008684;28;20048;-79
2023/05/04 08:22:08;;;;;;;0.70;0.70;;;19.80;84.50;;;;;;5005101;28;20057;-80
2023/05/04 08:24:33;;;;;;;0.90;0.90;;;19.80;85.20;;;;;;5003511;28;20092;-80
2023/05/04 08:27:00;;;;;;;0.88;0.88;;;19.80;84.30;;;;;;5004130;28;30085;-80
2023/05/04 08:29:26;;;;;;;0.60;0.60;;;19.80;84.20;;;;;;5006166;28;20694;-80
2023/05/04 08:31:53;;;;;;;0.73;0.73;;;19.80;84.20;;;;;;5004433;28;20500;-80
2023/05/04 08:34:19;;;;;;;0.60;0.60;;;19.80;84.10;;;;;;5003417;28;20049;-81
2023/05/04 08:36:45;;;;;;;0.70;0.70;;;19.80;84.00;;;;;;5003608;28;20033;-80
2023/05/04 08:39:11;;;;;;;0.80;0.80;;;19.90;83.90;;;;;;5005985;28;20397;-80
2023/05/04 08:41:40;;;;;;;0.70;0.70;;;19.90;83.90;;;;;;5006806;28;20611;-81
2023/05/04 08:44:08;;;;;;;1.13;0.90;;;19.90;84.00;;;;;;5020314;28;20046;-80
2023/05/04 08:46:33;;;;;;;0.90;0.90;;;19.90;83.80;;;;;;5012170;28;20038;-79
2023/05/04 08:48:59;;;;;;;0.60;0.60;;;19.90;83.90;;;;;;5007373;28;20050;-80
2023/05/04 08:51:25;;;;;;;0.80;0.80;;;19.90;84.00;;;;;;5009558;28;20112;-79
2023/05/04 08:53:50;;;;;;;0.70;0.70;;;19.90;84.00;;;;;;5012337;28;20048;-80
2023/05/04 08:56:16;;;;;;;1.30;0.98;;;19.90;84.10;;;;;;5005148;28;20504;-80
2023/05/04 08:58:51;;;;;;;0.80;0.80;;;19.90;83.90;;;;;;5011301;28;20125;-80
2023/05/04 09:01:17;;;;;;;1.17;1.17;;;20.00;83.90;;;;;;5007993;28;20044;-80
2023/05/04 09:03:46;;;;;;;0.70;0.70;;;20.00;83.80;;;;;;5016000;28;20506;-80
2023/05/04 09:06:15;;;;;;;0.70;0.70;;;20.00;83.60;;;;;;5036851;28;20489;-80
2023/05/04 09:08:41;;;;;;;1.10;1.10;;;20.00;83.60;;;;;;5008656;28;20053;-80
2023/05/04 09:11:07;;;;;;;0.77;0.77;;;20.10;83.70;;;;;;5007779;28;20495;-79
2023/05/04 09:13:32;;;;;;;1.23;0.60;;;20.10;83.50;;;;;;5009185;28;20042;-80
2023/05/04 09:15:58;;;;;;;0.75;0.75;;;20.10;83.40;;;;;;4990888;28;20069;-80
2023/05/04 09:18:35;;;;;;;0.63;0.63;;;20.10;83.40;;;;;;5006399;28;20053;-80
2023/05/04 09:21:01;;;;;;;0.70;0.70;;;20.10;83.20;;;;;;5023892;28;20042;-80
2023/05/04 09:23:26;;;;;;;0.70;0.70;;;20.20;83.40;;;;;;5009503;28;20104;-80
2023/05/04 09:25:53;;;;;;;0.70;0.70;;;20.10;83.30;;;;;;5007668;28;20034;-80
2023/05/04 09:28:20;;;;;;;1.10;0.90;;;20.10;83.30;;;;;;5007952;28;20511;-80
2023/05/04 09:30:47;;;;;;;0.90;0.90;;;20.10;83.30;;;;;;5008613;28;20538;-80
2023/05/04 09:33:15;;;;;;;0.75;0.75;;;20.10;83.30;;;;;;5031675;28;20042;-80
2023/05/04 09:35:43;;;;;;;0.70;0.70;;;20.10;83.30;;;;;;5007598;28;20042;-80
2023/05/04 09:38:09;;;;;;;0.60;0.60;;;20.10;83.30;;;;;;4990901;28;20049;-80
2023/05/04 09:40:39;;;;;;;0.63;0.63;;;20.10;83.30;;;;;;5007014;28;20435;-80
2023/05/04 09:43:06;;;;;;;0.60;0.60;;;20.10;83.40;;;;;;5006894;28;20508;-80
2023/05/04 09:45:45;;;;;;;0.90;0.90;;;20.10;83.20;;;;;;5028300;28;20042;-80
2023/05/04 09:48:14;;;;;;;0.52;0.52;;;20.20;83.20;;;;;;5007831;28;20122;-80
2023/05/04 09:50:41;;;;;;;0.90;0.90;;;20.20;84.00;;;;;;5008670;28;20117;-80
2023/05/04 09:53:07;;;;;;;0.57;0.57;;;20.20;83.10;;;;;;5002575;28;20420;-80
2023/05/04 09:55:32;;;;;;;0.80;0.80;;;20.20;83.10;;;;;;5006594;28;20069;-80
2023/05/04 09:57:58;;;;;;;0.70;0.70;;;20.20;83.00;;;;;;5005234;28;20048;-80
2023/05/04 10:00:24;;;;;;;0.60;0.60;;;20.20;83.00;;;;;;5034166;28;20052;-79
2023/05/04 10:02:49;;;;;;;0.60;0.60;;;20.20;83.00;;;;;;5007774;28;20489;-80
2023/05/04 10:05:16;;;;;;;0.80;0.80;;;20.20;83.00;;;;;;5021275;28;20503;-80
2023/05/04 10:07:45;;;;;;;0.90;0.90;;;20.20;83.00;;;;;;5032425;28;20050;-80
2023/05/04 10:10:11;;;;;;;0.70;0.70;;;20.20;83.00;;;;;;5007214;28;20046;-80
2023/05/04 10:12:37;;;;;;;0.82;0.82;;;20.20;83.00;;;;;;5010770;28;20076;-80
2023/05/04 10:15:08;;;;;;;0.70;0.70;;;20.20;83.00;;;;;;5004536;28;20065;-80
2023/05/04 10:17:49;;;;;;;1.75;0.75;;;20.20;82.90;;;;;;5034226;28;20065;-80
2023/05/04 10:20:52;;;;;;;0.85;0.85;;;20.20;82.80;;;;;;5006248;28;20046;-80
2023/05/04 10:23:18;;;;;;;0.80;0.80;;;20.20;82.90;;;;;;5004131;28;20115;-80
2023/05/04 10:26:03;;;;;;;0.80;0.80;;;20.20;83.00;;;;;;5008025;28;20500;-80
2023/05/04 10:28:38;;;;;;;0.70;0.70;;;20.20;83.00;;;;;;4999597;28;20060;-81
2023/05/04 10:31:05;;;;;;;0.80;0.80;;;20.20;83.00;;;;;;5003100;28;20069;-81
2023/05/04 10:33:40;;;;;;;0.70;0.70;;;20.20;83.80;;;;;;5007489;28;20056;-80
2023/05/04 10:36:06;;;;;;;0.68;0.68;;;20.20;83.10;;;;;;5005349;28;20054;-80
2023/05/04 10:38:36;;;;;;;0.63;0.63;;;20.20;83.10;;;;;;5007089;28;20511;-80
2023/05/04 10:41:22;;;;;;;0.75;0.75;;;20.20;83.10;;;;;;5020014;28;20057;-80
2023/05/04 10:43:51;;;;;;;0.60;0.60;;;20.20;83.20;;;;;;5017424;28;20057;-80
2023/05/04 10:46:21;;;;;;;0.70;0.70;;;20.20;83.20;;;;;;5005286;28;20048;-80
2023/05/04 10:48:47;;;;;;;0.92;0.56;;;20.20;83.00;;;;;;4654701;28;10000616;-81
2023/05/04 10:51:23;;;;;;;0.60;0.60;;;20.30;83.00;;;;;;5000147;28;20056;-82
2023/05/04 10:53:48;;;;;;;0.70;0.70;;;20.30;83.00;;;;;;5001841;28;20050;-80
2023/05/04 10:56:25;;;;;;;0.88;0.60;;;20.30;83.10;;;;;;4999445;28;20061;-85
2023/05/04 10:58:50;;;;;;;0.60;0.60;;;20.40;83.50;;;;;;5001664;28;20396;-86
2023/05/04 11:01:17;;;;;;;2.95;1.10;;;20.40;83.70;;;;;;5006577;28;20053;-85
2023/05/04 11:03:42;;;;;;;1.30;1.20;;;20.40;84.30;;;;;;5001205;28;20041;-85
2023/05/04 11:06:18;;;;;;;1.27;1.17;;;20.50;84.10;;;;;;5034824;28;20125;-87
2023/05/04 11:08:46;;;;;;;1.00;0.77;;;20.40;82.90;;;;;;5005458;28;20589;-85
2023/05/04 11:11:11;;;;;;;0.57;0.57;;;20.40;83.00;;;;;;5003353;28;21358;-84
2023/05/04 11:13:46;;;;;;;0.98;0.63;;;20.40;83.40;;;;;;5003766;28;20050;-84
2023/05/04 11:16:12;;;;;;;0.40;0.40;;;20.50;83.60;;;;;;5002509;28;20042;-83
2023/05/04 11:18:38;;;;;;;0.77;0.52;;;20.50;83.80;;;;;;5024072;28;21224;-83
2023/05/04 11:21:03;;;;;;;0.63;0.57;;;20.50;83.40;;;;;;5006068;28;20120;-81
2023/05/04 11:23:29;;;;;;;0.22;0.22;;;20.50;83.40;;;;;;4665672;28;9999637;-83
2023/05/04 11:25:55;;;;;;;0.30;0.30;;;20.50;83.20;;;;;;5002936;28;20319;-82
2023/05/04 11:28:32;;;;;;;0.40;0.40;;;20.50;83.80;;;;;;4998838;28;20046;-84
2023/05/04 11:30:57;;;;;;;0.57;0.57;;;20.50;83.60;;;;;;5005096;28;20041;-82
2023/05/04 11:33:23;;;;;;;0.40;0.40;;;20.50;83.40;;;;;;5002774;28;20132;-82
2023/05/04 11:35:48;;;;;;;0.88;0.40;;;20.50;83.20;;;;;;5000229;28;20042;-84
2023/05/04 11:38:18;;;;;;;0.35;0.35;;;20.50;83.10;;;;;;5025768;28;20396;-84
2023/05/04 11:40:46;;;;;;;0.70;0.35;;;20.60;83.00;;;;;;5003132;28;20137;-82
2023/05/04 11:43:12;;;;;;;0.30;0.30;;;20.60;83.20;;;;;;5015709;28;20038;-81
2023/05/04 11:45:38;;;;;;;0.40;0.40;;;20.50;83.20;;;;;;5018211;28;20553;-82
2023/05/04 11:48:04;;;;;;;0.40;0.40;;;20.50;83.20;;;;;;5025818;28;20053;-82
2023/05/04 11:50:30;;;;;;;0.30;0.30;;;20.60;83.00;;;;;;5015510;28;20042;-83
2023/05/04 11:53:09;;;;;;;1.42;0.40;;;20.60;83.00;;;;;;5002069;28;20544;-83
2023/05/04 11:55:36;;;;;;;0.40;0.40;;;20.60;82.70;;;;;;5001450;28;20041;-83
2023/05/04 11:58:03;;;;;;;0.40;0.38;;;20.60;82.60;;;;;;5019652;28;20049;-83
2023/05/04 12:00:38;;;;;;;0.25;0.25;;;20.60;82.70;;;;;;5006643;28;20042;-83
2023/05/04 12:03:14;;;;;;;0.50;0.50;;;20.60;82.70;;;;;;5018567;28;20042;-83
2023/05/04 12:05:50;;;;;;;0.43;0.38;;;20.60;82.50;;;;;;5013867;28;20081;-83
2023/05/04 12:08:35;;;;;;;0.40;0.40;;;20.60;82.60;;;;;;5004510;28;20073;-83
2023/05/04 12:11:16;;;;;;;0.55;0.40;;;20.60;82.60;;;;;;5005348;28;20073;-83
2023/05/04 12:13:43;;;;;;;0.75;0.40;;;20.60;82.80;;;;;;5003556;28;20053;-83
2023/05/04 12:16:12;;;;;;;0.50;0.30;;;20.60;82.50;;;;;;4990327;28;20054;-83
2023/05/04 12:18:37;;;;;;;0.30;0.30;;;20.60;82.50;;;;;;5010780;28;20063;-83
2023/05/04 12:21:13;;;;;;;0.70;0.25;;;20.60;82.40;;;;;;5003069;28;20045;-83
2023/05/04 12:23:39;;;;;;;2.03;0.50;;;20.60;82.40;;;;;;5005130;28;20042;-83
2023/05/04 12:26:05;;;;;;;0.73;0.30;;;20.60;82.40;;;;;;5006616;28;20128;-83
2023/05/04 12:28:31;;;;;;;0.35;0.35;;;20.60;82.30;;;;;;5005990;28;20518;-83
2023/05/04 12:30:58;;;;;;;0.32;0.32;;;20.60;82.40;;;;;;5012426;28;20034;-83
2023/05/04 12:33:24;;;;;;;0.20;0.20;;;20.60;82.30;;;;;;5004735;28;20060;-83
2023/05/04 12:35:49;;;;;;;0.20;0.20;;;20.60;82.30;;;;;;5006596;28;20038;-83
2023/05/04 12:38:15;;;;;;;0.40;0.40;;;20.60;82.30;;;;;;5000650;28;20069;-83
2023/05/04 12:40:41;;;;;;;0.30;0.30;;;20.60;82.30;;;;;;5005617;28;20046;-83
2023/05/04 12:43:07;;;;;;;0.20;0.20;;;20.60;82.30;;;;;;5006913;28;20179;-83